Time;durP1;ratioP1;P1;durP2;ratioP2;P2;SDS_P1;SDS_P2;PMS_P1;PMS_P2;Temp;Humidity;BMP_temperature;BMP_pressure;BME280_temperature;BME280_humidity;BME280_pressure;Samples;Min_cycle;Max_cycle;Signal;HPM_P1;HPM_P2
2023/04/02 00:00:09;;;;;;;14.57;9.05;;;;;;;9.20;73.89;97426.88;5091297;28;20081;-74
2023/04/02 00:02:44;;;;;;;13.27;8.98;;;;;;;9.21;73.81;97423.03;5086736;28;20032;-74
2023/04/02 00:05:15;;;;;;;15.40;9.20;;;;;;;9.23;73.90;97428.19;5091211;28;20089;-74
2023/04/02 00:07:43;;;;;;;12.98;8.88;;;;;;;9.18;74.81;97417.38;5091068;28;20025;-75
2023/04/02 00:10:33;;;;;;;16.63;9.88;;;;;;;9.16;74.06;97427.81;5091341;28;20016;-74
2023/04/02 00:13:00;;;;;;;16.40;9.55;;;;;;;9.18;73.78;97412.69;5090614;28;20035;-74
2023/04/02 00:15:26;;;;;;;17.55;9.98;;;;;;;9.18;73.81;97423.63;5091137;28;20111;-74
2023/04/02 00:17:51;;;;;;;15.23;10.27;;;;;;;9.19;74.49;97425.25;5091292;28;20028;-74
2023/04/02 00:20:18;;;;;;;16.17;11.10;;;;;;;9.18;74.35;97429.13;5091181;28;20026;-74
2023/04/02 00:22:44;;;;;;;18.77;11.57;;;;;;;9.21;74.37;97427.69;5090426;28;20085;-74
2023/04/02 00:25:12;;;;;;;15.40;10.98;;;;;;;9.22;74.09;97426.56;5091023;28;20095;-74
2023/04/02 00:27:38;;;;;;;19.58;12.18;;;;;;;9.26;74.54;97430.31;5090999;28;20037;-74
2023/04/02 00:30:05;;;;;;;20.33;12.95;;;;;;;9.29;74.63;97434.34;5091093;28;20034;-74
2023/04/02 00:32:33;;;;;;;16.35;11.27;;;;;;;9.30;74.50;97425.00;5090194;28;20027;-74
2023/04/02 00:35:00;;;;;;;19.27;11.48;;;;;;;9.31;74.51;97432.09;5072714;28;20016;-75
2023/04/02 00:37:28;;;;;;;16.77;11.02;;;;;;;9.33;74.34;97432.59;5090048;28;20024;-74
2023/04/02 00:40:00;;;;;;;16.90;10.40;;;;;;;9.32;74.65;97440.00;5090712;28;20020;-74
2023/04/02 00:42:30;;;;;;;16.20;10.18;;;;;;;9.31;74.51;97434.81;5085749;28;20423;-74
2023/04/02 00:44:57;;;;;;;17.42;11.35;;;;;;;9.31;73.92;97432.09;5066789;28;20024;-74
2023/04/02 00:47:23;;;;;;;18.30;11.35;;;;;;;9.31;74.49;97432.09;5070339;28;20023;-74
2023/04/02 00:50:06;;;;;;;18.92;12.45;;;;;;;9.31;74.61;97437.56;5070653;28;20020;-74
2023/04/02 00:52:34;;;;;;;19.50;12.05;;;;;;;9.32;74.28;97440.00;5069201;28;20054;-75
2023/04/02 00:55:12;;;;;;;20.60;12.55;;;;;;;9.30;74.43;97436.78;5071114;28;20067;-74
2023/04/02 00:57:41;;;;;;;21.42;13.10;;;;;;;9.27;74.47;97434.66;5069356;28;20086;-75
2023/04/02 01:00:12;;;;;;;24.10;13.38;;;;;;;9.28;74.64;97438.19;5067058;28;20032;-75
2023/04/02 01:02:39;;;;;;;21.83;13.40;;;;;;;9.24;73.98;97441.53;5068857;28;20129;-75
2023/04/02 01:05:15;;;;;;;20.42;12.23;;;;;;;9.26;74.93;97445.91;5071362;28;20154;-75
2023/04/02 01:07:41;;;;;;;18.05;11.23;;;;;;;9.24;74.40;97443.50;5069588;28;20490;-75
2023/04/02 01:10:19;;;;;;;16.98;11.93;;;;;;;9.17;74.47;97443.91;5071408;28;20029;-75
2023/04/02 01:12:58;;;;;;;20.35;12.98;;;;;;;9.13;74.94;97448.41;5052536;28;20028;-75
2023/04/02 01:15:30;;;;;;;19.67;12.05;;;;;;;9.14;75.14;97449.22;5069293;28;20016;-74
2023/04/02 01:18:30;;;;;;;20.02;12.95;;;;;;;9.07;75.32;97442.25;5069540;28;20031;-74
2023/04/02 01:21:10;;;;;;;22.42;13.82;;;;;;;9.03;74.54;97451.41;5057425;28;20629;-75
2023/04/02 01:23:45;;;;;;;25.08;15.27;;;;;;;9.05;74.95;97451.91;5070329;28;20048;-75
2023/04/02 01:26:33;;;;;;;27.60;16.52;;;;;;;9.04;75.02;97439.34;5072765;28;20041;-75
2023/04/02 01:29:07;;;;;;;29.73;17.13;;;;;;;9.04;74.60;97447.53;5073096;28;20029;-75
2023/04/02 01:31:34;;;;;;;22.00;14.02;;;;;;;9.07;75.54;97455.91;5072728;28;20048;-75
2023/04/02 01:34:03;;;;;;;22.15;13.95;;;;;;;9.03;75.42;97454.91;5073378;28;20365;-75
2023/04/02 01:36:45;;;;;;;24.20;15.38;;;;;;;9.02;75.65;97458.78;5056476;28;20096;-75
2023/04/02 01:39:33;;;;;;;38.08;24.25;;;;;;;9.04;74.79;97453.81;5053130;28;20111;-74
2023/04/02 01:42:08;;;;;;;33.30;22.10;;;;;;;9.07;74.91;97455.13;5052447;28;20493;-74
2023/04/02 01:44:42;;;;;;;35.25;22.90;;;;;;;9.07;75.31;97463.34;5067277;28;20032;-74
2023/04/02 01:47:14;;;;;;;28.92;19.15;;;;;;;9.12;75.52;97456.91;5067784;28;20036;-74
2023/04/02 01:49:42;;;;;;;30.23;18.58;;;;;;;9.12;75.25;97457.75;5068023;28;20423;-74
2023/04/02 01:52:12;;;;;;;30.00;19.38;;;;;;;9.14;75.66;97454.69;5057541;28;20115;-74
2023/04/02 01:54:39;;;;;;;31.30;19.02;;;;;;;9.15;75.68;97457.13;5053072;28;20025;-74
2023/04/02 01:57:06;;;;;;;30.63;18.85;;;;;;;9.15;75.55;97462.59;5054654;28;20036;-74
2023/04/02 01:59:32;;;;;;;31.42;19.67;;;;;;;9.13;75.29;97462.09;5051775;28;20044;-73
2023/04/02 02:02:04;;;;;;;35.30;21.80;;;;;;;9.16;75.07;97458.75;5050919;28;20473;-74
2023/04/02 02:04:31;;;;;;;42.55;23.30;;;;;;;9.17;75.35;97465.78;5051851;28;20024;-73
2023/04/02 02:07:00;;;;;;;38.03;22.88;;;;;;;9.19;75.32;97460.81;5070717;28;20031;-74
2023/04/02 02:09:29;;;;;;;34.83;21.00;;;;;;;9.19;75.35;97469.03;5071537;28;20396;-74
2023/04/02 02:11:58;;;;;;;35.47;20.37;;;;;;;9.19;75.11;97469.03;5055437;28;20482;-74
2023/04/02 02:14:26;;;;;;;38.65;21.33;;;;;;;9.20;75.37;97472.59;5051090;28;20036;-74
2023/04/02 02:16:58;;;;;;;34.25;21.20;;;;;;;9.18;75.19;97475.63;5051351;28;20029;-74
2023/04/02 02:19:35;;;;;;;34.95;21.00;;;;;;;9.18;75.16;97472.09;5051462;28;20028;-74
2023/04/02 02:22:28;;;;;;;34.30;20.38;;;;;;;9.18;74.97;97469.34;5051083;28;20474;-74
2023/04/02 02:24:56;;;;;;;34.38;20.58;;;;;;;9.16;75.02;97469.69;5069080;28;20029;-74
2023/04/02 02:27:21;;;;;;;38.72;23.05;;;;;;;9.14;75.24;97480.13;5067932;28;20020;-73
2023/04/02 02:30:02;;;;;;;36.08;21.10;;;;;;;9.12;75.73;97474.16;5069162;28;20158;-74
2023/04/02 02:32:32;;;;;;;36.88;21.65;;;;;;;9.12;75.78;97473.34;5066943;28;20032;-74
2023/04/02 02:35:10;;;;;;;37.47;21.92;;;;;;;9.12;75.25;97479.63;5061636;28;20099;-74
2023/04/02 02:37:41;;;;;;;36.00;21.83;;;;;;;9.13;75.45;97475.78;5068031;28;20041;-73
2023/04/02 02:40:14;;;;;;;35.85;23.13;;;;;;;9.12;75.37;97482.34;5068991;28;20028;-74
2023/04/02 02:42:55;;;;;;;40.33;22.83;;;;;;;9.10;75.18;97481.88;5064452;28;20460;-74
2023/04/02 02:45:26;;;;;;;34.45;20.90;;;;;;;9.10;75.85;97481.88;5066423;28;20393;-74
2023/04/02 02:47:54;;;;;;;37.50;22.60;;;;;;;9.07;75.27;97485.22;5067101;28;20464;-74
2023/04/02 02:50:24;;;;;;;41.53;23.65;;;;;;;9.05;75.32;97479.25;5068933;28;20100;-74
2023/04/02 02:52:53;;;;;;;39.00;22.90;;;;;;;9.03;75.24;97484.22;5063781;28;20473;-74
2023/04/02 02:55:38;;;;;;;41.67;24.10;;;;;;;9.01;74.95;97486.44;5069578;28;20389;-73
2023/04/02 02:58:08;;;;;;;39.55;23.83;;;;;;;9.04;75.69;97483.09;5069273;28;20078;-74
2023/04/02 03:00:37;;;;;;;37.45;22.25;;;;;;;9.03;75.71;97490.47;5069263;28;20027;-73
2023/04/02 03:03:11;;;;;;;34.55;21.33;;;;;;;9.01;75.66;97492.72;5067112;28;20028;-73
2023/04/02 03:05:37;;;;;;;34.08;21.60;;;;;;;9.01;75.46;97500.91;5070019;28;20040;-74
2023/04/02 03:08:06;;;;;;;33.67;21.05;;;;;;;8.99;75.99;97496.88;5064239;28;20442;-74
2023/04/02 03:10:35;;;;;;;35.88;21.42;;;;;;;8.98;76.28;97507.00;5067675;28;20028;-73
2023/04/02 03:13:20;;;;;;;39.25;21.92;;;;;;;8.96;76.37;97506.53;5066246;28;20024;-73
2023/04/02 03:16:06;;;;;;;38.70;22.90;;;;;;;8.97;75.23;97513.59;5067254;28;20052;-73
2023/04/02 03:18:39;;;;;;;39.50;22.75;;;;;;;8.98;75.68;97506.22;5065659;28;20048;-74
2023/04/02 03:21:19;;;;;;;37.10;22.80;;;;;;;8.97;75.95;97508.13;5066619;28;20017;-74
2023/04/02 03:23:52;;;;;;;37.03;21.25;;;;;;;9.00;75.92;97512.97;5067575;28;20017;-73
2023/04/02 03:26:51;;;;;;;36.40;21.42;;;;;;;8.99;76.05;97516.81;5067419;28;20020;-74
2023/04/02 03:29:25;;;;;;;34.63;21.02;;;;;;;8.97;76.38;97510.84;5058396;28;20040;-74
2023/04/02 03:31:59;;;;;;;34.53;21.10;;;;;;;8.98;76.69;97522.63;5065936;28;20087;-74
2023/04/02 03:34:54;;;;;;;34.97;21.05;;;;;;;8.93;76.15;97518.09;5066331;28;20119;-74
2023/04/02 03:37:41;;;;;;;34.42;20.40;;;;;;;8.94;75.99;97525.19;5067892;28;20159;-74
2023/04/02 03:40:25;;;;;;;35.47;22.20;;;;;;;8.97;76.74;97524.53;5051967;28;20392;-74
2023/04/02 03:43:12;;;;;;;39.15;23.02;;;;;;;8.96;75.62;97524.84;5069461;28;20060;-73
2023/04/02 03:45:42;;;;;;;37.45;22.73;;;;;;;8.93;76.18;97532.56;5070067;28;20031;-74
2023/04/02 03:48:26;;;;;;;34.92;21.02;;;;;;;8.90;76.72;97529.63;5070009;28;20059;-74
2023/04/02 03:51:14;;;;;;;37.00;21.13;;;;;;;8.88;76.10;97534.59;5069663;28;20469;-73
2023/04/02 03:53:42;;;;;;;33.72;19.88;;;;;;;8.89;76.49;97539.75;5069757;28;20388;-74
2023/04/02 03:56:20;;;;;;;35.95;20.55;;;;;;;8.87;77.53;97539.25;5069918;28;20033;-74
2023/04/02 03:58:52;;;;;;;33.33;19.60;;;;;;;8.85;76.89;97538.75;5069845;28;20103;-74
2023/04/02 04:01:27;;;;;;;34.28;20.08;;;;;;;8.84;77.23;97544.53;5069559;28;20028;-74
2023/04/02 04:03:56;;;;;;;38.30;21.85;;;;;;;8.78;76.97;97552.03;5069717;28;20033;-74
2023/04/02 04:06:32;;;;;;;37.83;20.52;;;;;;;8.76;76.32;97554.28;5069815;28;20084;-74
2023/04/02 04:08:59;;;;;;;37.63;20.05;;;;;;;8.81;76.81;97553.34;5069541;28;20497;-74
2023/04/02 04:11:31;;;;;;;36.15;20.08;;;;;;;8.82;77.33;97552.25;5069591;28;20039;-74
2023/04/02 04:14:07;;;;;;;38.70;21.17;;;;;;;8.81;76.66;97556.09;5069316;28;20025;-74
2023/04/02 04:16:41;;;;;;;38.28;19.92;;;;;;;8.81;76.79;97562.34;5069574;28;20025;-74
2023/04/02 04:19:18;;;;;;;35.50;18.08;;;;;;;8.78;77.22;97562.97;5069863;28;20052;-74
2023/04/02 04:21:45;;;;;;;32.45;17.70;;;;;;;8.79;77.01;97559.94;5074127;28;20063;-74
2023/04/02 04:24:20;;;;;;;38.97;20.25;;;;;;;8.76;77.38;97571.47;5056435;28;20077;-74
2023/04/02 04:27:02;;;;;;;40.90;21.35;;;;;;;8.73;77.47;97571.28;5074198;28;20033;-74
2023/04/02 04:29:50;;;;;;;38.85;20.77;;;;;;;8.73;77.05;97568.56;5074188;28;20017;-74
2023/04/02 04:32:26;;;;;;;37.60;20.50;;;;;;;8.73;77.47;97574.03;5074039;28;20021;-74
2023/04/02 04:34:57;;;;;;;36.72;19.27;;;;;;;8.73;77.34;97574.81;5073147;28;20103;-74
2023/04/02 04:37:32;;;;;;;34.20;18.48;;;;;;;8.72;78.18;97573.22;5054235;28;20025;-74
2023/04/02 04:39:59;;;;;;;30.05;16.83;;;;;;;8.73;77.07;97583.03;5054198;28;20589;-74
2023/04/02 04:42:32;;;;;;;31.40;16.27;;;;;;;8.73;77.57;97580.28;5058837;28;20031;-74
2023/04/02 04:45:03;;;;;;;28.05;15.80;;;;;;;8.73;77.63;97587.69;5094634;28;20024;-74
2023/04/02 04:47:36;;;;;;;31.60;18.00;;;;;;;8.74;77.94;97589.31;5094301;28;20036;-74
2023/04/02 04:50:37;;;;;;;30.80;16.33;;;;;;;8.74;77.34;97592.84;5076074;28;20032;-74
2023/04/02 04:53:20;;;;;;;32.33;17.05;;;;;;;8.78;77.29;97598.50;5079718;28;20078;-74
2023/04/02 04:55:47;;;;;;;36.47;18.15;;;;;;;8.82;77.69;97602.25;5094309;28;20078;-74
2023/04/02 04:58:26;;;;;;;32.65;17.38;;;;;;;8.80;77.77;97604.47;5089845;28;20048;-74
2023/04/02 05:01:14;;;;;;;39.47;18.55;;;;;;;8.77;77.86;97610.56;5094028;28;20020;-74
2023/04/02 05:03:48;;;;;;;33.30;16.65;;;;;;;8.75;78.02;97621.81;5075957;28;20280;-74
2023/04/02 05:06:31;;;;;;;26.33;13.18;;;;;;;8.69;77.34;97624.97;5094344;28;20430;-74
2023/04/02 05:09:06;;;;;;;15.70;9.07;;;;;;;8.60;77.95;97631.13;5093818;28;20036;-74
2023/04/02 05:11:38;;;;;;;16.17;9.05;;;;;;;8.40;77.73;97636.94;5075587;28;20028;-74
2023/04/02 05:14:20;;;;;;;13.80;8.75;;;;;;;8.21;77.53;97643.31;5093929;28;20353;-75
2023/04/02 05:16:58;;;;;;;14.52;9.63;;;;;;;8.05;78.26;97646.28;5075610;28;20419;-74
2023/04/02 05:19:42;;;;;;;10.90;6.60;;;;;;;7.89;77.73;97655.88;5089803;28;20039;-75
2023/04/02 05:22:31;;;;;;;6.15;4.95;;;;;;;7.74;78.40;97665.13;5093047;28;20035;-75
2023/04/02 05:25:12;;;;;;;5.43;4.78;;;;;;;7.47;77.52;97666.59;5093785;28;20032;-74
2023/04/02 05:27:48;;;;;;;7.20;4.72;;;;;;;7.33;77.77;97669.25;5093658;28;20135;-74
2023/04/02 05:30:23;;;;;;;7.40;5.40;;;;;;;7.20;78.00;97678.16;5093350;28;20077;-73
2023/04/02 05:32:56;;;;;;;6.15;4.70;;;;;;;6.92;77.39;97681.53;5093084;28;20036;-74
2023/04/02 05:35:27;;;;;;;5.57;4.03;;;;;;;6.68;77.28;97686.97;5093567;28;20487;-74
2023/04/02 05:37:53;;;;;;;5.93;4.65;;;;;;;6.56;78.06;97692.81;5093572;28;20053;-73
2023/04/02 05:40:29;;;;;;;7.03;4.53;;;;;;;6.41;78.23;97693.78;5093029;28;20115;-74
2023/04/02 05:42:57;;;;;;;5.00;3.67;;;;;;;6.29;78.25;97709.72;5092576;28;20032;-74
2023/04/02 05:45:37;;;;;;;5.32;3.45;;;;;;;6.19;78.30;97705.16;5093158;28;20035;-74
2023/04/02 05:48:12;;;;;;;7.10;3.65;;;;;;;6.13;78.59;97709.84;5089652;28;20541;-73
2023/04/02 05:50:44;;;;;;;6.05;3.80;;;;;;;6.02;78.82;97717.28;5092897;28;20024;-73
2023/04/02 05:53:25;;;;;;;4.70;3.42;;;;;;;5.93;78.81;97725.19;5092635;28;20024;-73
2023/04/02 05:55:56;;;;;;;4.15;3.10;;;;;;;5.78;78.55;97725.31;5092964;28;20035;-73
2023/04/02 05:58:28;;;;;;;4.20;3.22;;;;;;;5.69;78.69;97735.19;5093103;28;20549;-73
2023/04/02 06:01:03;;;;;;;7.00;4.72;;;;;;;5.64;79.17;97736.84;5092574;28;20031;-73
2023/04/02 06:03:50;;;;;;;9.70;6.25;;;;;;;5.62;78.61;97747.19;5092671;28;20036;-73
2023/04/02 06:06:40;;;;;;;7.72;5.25;;;;;;;5.60;79.09;97756.72;5074827;28;20032;-73
2023/04/02 06:09:16;;;;;;;8.30;6.40;;;;;;;5.51;78.93;97764.66;5093416;28;20376;-73
2023/04/02 06:12:20;;;;;;;5.93;4.93;;;;;;;5.45;79.19;97769.31;5092540;28;20024;-73
2023/04/02 06:14:46;;;;;;;4.70;3.97;;;;;;;5.46;78.95;97773.66;5075234;28;20040;-73
2023/04/02 06:17:16;;;;;;;5.97;4.20;;;;;;;5.38;79.48;97776.94;5092611;28;20111;-73
2023/04/02 06:19:41;;;;;;;;;;;;;;;5.36;78.78;97782.69;5093142;28;20028;-73
2023/04/02 06:22:19;;;;;;;4.70;3.60;;;;;;;5.41;78.82;97794.63;5092050;28;19912;-73
2023/04/02 06:24:47;;;;;;;4.57;3.50;;;;;;;5.42;78.61;97793.53;5074572;28;20438;-73
2023/04/02 06:27:18;;;;;;;3.92;2.80;;;;;;;5.43;79.54;97804.13;5092577;28;20043;-74
2023/04/02 06:29:46;;;;;;;4.88;3.53;;;;;;;5.42;78.67;97804.41;5092663;28;20056;-73
2023/04/02 06:32:12;;;;;;;4.43;3.10;;;;;;;5.50;78.94;97812.00;5092204;28;20024;-74
2023/04/02 06:34:39;;;;;;;4.90;3.10;;;;;;;5.43;78.50;97812.28;5092225;28;20383;-73
2023/04/02 06:37:26;;;;;;;4.13;3.38;;;;;;;5.39;78.36;97815.84;5092044;28;20063;-74
2023/04/02 06:39:52;;;;;;;4.45;2.90;;;;;;;5.42;78.80;97818.03;5089872;28;20020;-74
2023/04/02 06:42:33;;;;;;;4.05;2.95;;;;;;;5.36;78.80;97830.81;5090849;28;20099;-73
2023/04/02 06:44:59;;;;;;;4.32;3.10;;;;;;;5.28;78.92;97834.91;5074049;28;20032;-74
2023/04/02 06:47:41;;;;;;;11.25;5.20;;;;;;;5.23;79.09;97837.66;5091827;28;20030;-73
2023/04/02 06:50:22;;;;;;;5.68;3.78;;;;;;;5.27;78.42;97843.38;5091966;28;20055;-73
2023/04/02 06:52:50;;;;;;;6.15;4.10;;;;;;;5.33;78.67;97844.94;5069959;28;20028;-73
2023/04/02 06:55:18;;;;;;;5.95;3.78;;;;;;;5.36;78.87;97855.28;5088346;28;20082;-73
2023/04/02 06:57:44;;;;;;;6.97;4.35;;;;;;;5.39;78.55;97851.19;5088054;28;20070;-73
2023/04/02 07:00:44;;;;;;;14.60;9.55;;;;;;;5.38;78.79;97863.97;5091485;28;20059;-73
2023/04/02 07:03:22;;;;;;;6.55;5.78;;;;;;;5.33;78.39;97872.13;5087528;28;20055;-73
2023/04/02 07:05:48;;;;;;;7.32;6.55;;;;;;;5.29;78.60;97877.31;5091831;28;20036;-73
2023/04/02 07:08:13;;;;;;;7.47;6.13;;;;;;;5.26;78.68;97883.31;5073357;28;20032;-74
2023/04/02 07:10:38;;;;;;;5.90;5.30;;;;;;;5.21;78.54;97888.75;5091352;28;20036;-73
2023/04/02 07:13:04;;;;;;;3.55;3.25;;;;;;;5.16;78.50;97888.75;5091517;28;20034;-74
2023/04/02 07:15:30;;;;;;;2.40;1.95;;;;;;;5.08;78.65;97898.31;5073328;28;20066;-73
2023/04/02 07:17:57;;;;;;;2.67;2.15;;;;;;;5.02;77.74;97902.94;5091568;28;20073;-73
2023/04/02 07:20:27;;;;;;;2.20;1.90;;;;;;;5.01;78.44;97897.75;5091648;28;20460;-73
2023/04/02 07:22:53;;;;;;;3.30;1.80;;;;;;;4.97;77.65;97911.09;5086898;28;20094;-73
2023/04/02 07:25:18;;;;;;;2.40;2.15;;;;;;;4.85;77.65;97916.81;5090864;28;20036;-74
2023/04/02 07:27:44;;;;;;;4.57;2.80;;;;;;;4.80;77.96;97922.25;5091072;28;20020;-74
2023/04/02 07:30:09;;;;;;;4.45;3.00;;;;;;;4.76;78.24;97930.09;5091264;28;20024;-73
2023/04/02 07:32:35;;;;;;;2.75;1.42;;;;;;;4.67;78.23;97937.19;5072733;28;20103;-73
2023/04/02 07:35:01;;;;;;;2.38;1.40;;;;;;;4.64;78.36;97948.59;5091091;28;20042;-73
2023/04/02 07:37:26;;;;;;;1.05;0.70;;;;;;;4.58;77.86;97949.66;5091362;28;20031;-73
2023/04/02 07:39:52;;;;;;;1.45;1.02;;;;;;;4.56;78.15;97960.78;5072523;28;20016;-73
2023/04/02 07:42:17;;;;;;;1.65;0.95;;;;;;;4.57;77.91;97962.41;5088868;28;20020;-73
2023/04/02 07:44:43;;;;;;;3.33;1.50;;;;;;;4.58;77.31;97968.69;5070739;28;20401;-73
2023/04/02 07:47:09;;;;;;;1.90;1.08;;;;;;;4.62;77.34;97964.34;5070822;28;20033;-73
2023/04/02 07:49:34;;;;;;;1.85;0.85;;;;;;;4.65;76.78;97976.56;5070762;28;20051;-73
2023/04/02 07:52:00;;;;;;;2.22;1.42;;;;;;;4.65;76.95;97974.66;5070797;28;20025;-73
2023/04/02 07:54:26;;;;;;;2.47;1.00;;;;;;;4.68;76.89;97982.28;5071164;28;20108;-73
2023/04/02 07:56:51;;;;;;;3.22;2.33;;;;;;;4.66;76.65;97989.06;5074682;28;20024;-73
2023/04/02 07:59:16;;;;;;;5.07;2.70;;;;;;;4.58;77.07;97988.50;5074859;28;20016;-73
2023/04/02 08:01:42;;;;;;;5.40;3.15;;;;;;;4.59;77.37;97997.47;5074889;28;20442;-73
2023/04/02 08:04:16;;;;;;;1.42;1.30;;;;;;;4.57;77.17;97994.19;5074533;28;20223;-73
2023/04/02 08:06:41;;;;;;;4.05;1.70;;;;;;;4.52;76.41;98005.06;5074831;28;20388;-73
2023/04/02 08:09:06;;;;;;;1.60;1.20;;;;;;;4.42;76.83;98003.13;5074962;28;20033;-74
2023/04/02 08:11:32;;;;;;;1.88;1.35;;;;;;;4.39;76.89;98009.88;5056618;28;20393;-73
2023/04/02 08:13:57;;;;;;;1.55;1.20;;;;;;;4.32;76.53;98014.75;5074674;28;20025;-72
2023/04/02 08:16:24;;;;;;;3.00;1.70;;;;;;;4.31;76.85;98022.09;5074787;28;20024;-73
2023/04/02 08:18:49;;;;;;;1.92;1.30;;;;;;;4.27;76.58;98025.63;5056929;28;20036;-73
2023/04/02 08:21:15;;;;;;;2.33;1.25;;;;;;;4.25;76.82;98030.50;5074533;28;20097;-73
2023/04/02 08:23:41;;;;;;;1.38;1.20;;;;;;;4.29;76.48;98031.56;5074468;28;20530;-73
2023/04/02 08:26:07;;;;;;;1.88;1.52;;;;;;;4.27;76.35;98047.34;5074432;28;20025;-73
2023/04/02 08:28:33;;;;;;;1.98;1.75;;;;;;;4.22;75.89;98050.81;5074170;28;20032;-73
2023/04/02 08:30:58;;;;;;;5.13;2.95;;;;;;;4.22;76.38;98048.13;5074181;28;20025;-73
2023/04/02 08:33:24;;;;;;;4.80;2.40;;;;;;;4.26;76.02;98056.56;5074113;28;20017;-73
2023/04/02 08:35:50;;;;;;;2.67;1.75;;;;;;;4.19;76.56;98062.22;5065146;28;20059;-73
2023/04/02 08:38:18;;;;;;;5.32;2.22;;;;;;;4.15;76.78;98066.53;5054344;28;20549;-73
2023/04/02 08:40:46;;;;;;;6.15;2.72;;;;;;;4.06;76.51;98065.41;5054057;28;20025;-73
2023/04/02 08:43:37;;;;;;;9.27;5.05;;;;;;;4.05;76.64;98078.16;5066637;28;20404;-73
2023/04/02 08:46:17;;;;;;;14.45;9.52;;;;;;;4.10;76.64;98077.34;5094667;28;20068;-73
2023/04/02 08:48:48;;;;;;;13.07;6.63;;;;;;;4.11;77.11;98079.81;5094594;28;20035;-73
2023/04/02 08:51:26;;;;;;;15.10;7.03;;;;;;;4.11;77.04;98087.97;5094329;28;20028;-73
2023/04/02 08:53:58;;;;;;;10.73;5.35;;;;;;;4.13;77.56;98093.13;5094424;28;20023;-73
2023/04/02 08:56:39;;;;;;;12.15;5.78;;;;;;;4.08;77.06;98085.78;5094569;28;20392;-74
2023/04/02 08:59:32;;;;;;;12.93;6.63;;;;;;;4.07;77.43;98096.91;5094306;28;20027;-73
2023/04/02 09:02:27;;;;;;;14.82;8.57;;;;;;;4.00;77.67;98105.25;5082551;28;20127;-73
2023/04/02 09:04:53;;;;;;;8.50;5.50;;;;;;;3.98;77.21;98107.41;5094117;28;20089;-73
2023/04/02 09:07:18;;;;;;;12.50;6.93;;;;;;;3.98;77.48;98116.38;5094291;28;20031;-73
2023/04/02 09:09:47;;;;;;;11.65;8.00;;;;;;;3.92;77.42;98111.16;5094039;28;20691;-73
2023/04/02 09:12:28;;;;;;;11.50;8.02;;;;;;;3.90;78.21;98122.28;5093580;28;20504;-73
2023/04/02 09:15:17;;;;;;;10.18;7.90;;;;;;;3.81;77.71;98123.84;5094024;28;20139;-73
2023/04/02 09:17:43;;;;;;;10.43;7.90;;;;;;;3.82;78.11;98122.78;5079394;28;20561;-73
2023/04/02 09:20:20;;;;;;;7.88;6.07;;;;;;;3.90;78.33;98125.00;5094159;28;20031;-73
2023/04/02 09:22:47;;;;;;;8.07;6.30;;;;;;;3.88;78.32;98127.16;5092063;28;20151;-73
2023/04/02 09:25:20;;;;;;;9.93;7.60;;;;;;;3.82;78.02;98134.47;5093661;28;20058;-73
2023/04/02 09:27:48;;;;;;;11.40;8.48;;;;;;;3.84;77.54;98132.31;5093279;28;20031;-73
2023/04/02 09:30:28;;;;;;;12.10;8.13;;;;;;;3.89;78.13;98139.66;5093330;28;20027;-73
2023/04/02 09:33:08;;;;;;;10.07;7.95;;;;;;;3.91;79.26;98140.22;5092996;28;20028;-73
2023/04/02 09:36:02;;;;;;;14.33;9.73;;;;;;;3.85;78.60;98144.78;5088341;28;20477;-73
2023/04/02 09:38:30;;;;;;;16.38;10.65;;;;;;;3.90;78.48;98159.44;5086660;28;20036;-73
2023/04/02 09:41:16;;;;;;;13.05;8.77;;;;;;;3.93;78.48;98159.75;5093315;28;20051;-73
2023/04/02 09:43:41;;;;;;;11.00;8.20;;;;;;;3.93;79.09;98159.75;5065517;28;20050;-73
2023/04/02 09:46:22;;;;;;;14.07;9.57;;;;;;;3.86;79.12;98165.41;5073275;28;20097;-73
2023/04/02 09:48:59;;;;;;;12.35;8.40;;;;;;;3.87;78.67;98169.75;5053946;28;20116;-73
2023/04/02 09:51:27;;;;;;;13.18;9.23;;;;;;;3.80;78.97;98169.16;5062584;28;20040;-73
2023/04/02 09:54:01;;;;;;;13.57;9.23;;;;;;;3.78;79.38;98174.03;5071178;28;20056;-73
2023/04/02 09:56:27;;;;;;;12.15;8.68;;;;;;;3.81;78.77;98170.81;5056941;28;20040;-73
2023/04/02 09:59:20;;;;;;;12.30;7.93;;;;;;;3.90;79.90;98184.69;5069734;28;20532;-73
2023/04/02 10:01:52;;;;;;;11.20;8.00;;;;;;;3.95;78.94;98179.31;5053378;28;20035;-73
2023/04/02 10:04:38;;;;;;;11.90;9.05;;;;;;;3.95;78.87;98192.03;5070439;28;20024;-73
2023/04/02 10:07:05;;;;;;;9.93;6.97;;;;;;;3.95;79.73;98186.63;5068046;28;20059;-73
2023/04/02 10:09:36;;;;;;;9.30;7.28;;;;;;;3.95;79.37;98192.88;5070898;28;20385;-72
2023/04/02 10:12:05;;;;;;;10.55;7.60;;;;;;;3.94;79.02;98191.25;5050567;28;20017;-73
2023/04/02 10:14:36;;;;;;;8.45;6.82;;;;;;;3.94;79.20;98202.09;5052275;28;20029;-74
2023/04/02 10:17:23;;;;;;;8.88;6.97;;;;;;;3.91;79.04;98212.63;5066867;28;20032;-73
2023/04/02 10:20:05;;;;;;;18.90;13.50;;;;;;;3.93;78.69;98215.91;5058096;28;20024;-72
2023/04/02 10:22:30;;;;;;;12.98;9.93;;;;;;;3.94;79.40;98215.66;5052638;28;20530;-73
2023/04/02 10:24:58;;;;;;;12.70;9.25;;;;;;;3.96;78.74;98224.38;5064017;28;20020;-74
2023/04/02 10:27:50;;;;;;;10.20;7.72;;;;;;;3.96;79.47;98221.66;5059600;28;20590;-73
2023/04/02 10:30:22;;;;;;;11.00;8.43;;;;;;;3.98;79.25;98224.94;5066886;28;20575;-72
2023/04/02 10:33:04;;;;;;;17.00;10.65;;;;;;;4.04;79.58;98227.69;5069123;28;20487;-73
2023/04/02 10:35:55;;;;;;;9.73;8.25;;;;;;;4.04;79.22;98228.50;5070166;28;20028;-73
2023/04/02 10:38:24;;;;;;;9.40;6.55;;;;;;;4.06;78.86;98225.53;5063161;28;20021;-73
2023/04/02 10:41:15;;;;;;;11.70;8.05;;;;;;;3.97;78.73;98236.84;5053761;28;20116;-73
2023/04/02 10:44:06;;;;;;;15.32;8.45;;;;;;;4.04;79.09;98222.25;5065561;28;20595;-71
2023/04/02 10:46:58;;;;;;;20.52;10.18;;;;;;;4.15;79.10;98243.78;5058330;28;20492;-74
2023/04/02 10:49:49;;;;;;;11.38;7.60;;;;;;;4.19;78.04;98235.94;5071847;28;20020;-73
2023/04/02 10:52:20;;;;;;;13.15;7.30;;;;;;;4.12;78.67;98247.03;5071807;28;20090;-74
2023/04/02 10:54:55;;;;;;;14.20;8.30;;;;;;;4.19;78.83;98248.69;5071798;28;20024;-72
2023/04/02 10:57:39;;;;;;;12.60;8.05;;;;;;;4.30;78.53;98261.25;5062967;28;20025;-73
2023/04/02 11:00:11;;;;;;;8.45;6.85;;;;;;;4.34;77.99;98251.50;5050785;28;20020;-73
2023/04/02 11:02:55;;;;;;;9.55;7.57;;;;;;;4.42;78.00;98258.38;5064296;28;20033;-73
2023/04/02 11:05:35;;;;;;;8.38;6.65;;;;;;;4.52;78.69;98268.47;5064432;28;20036;-73
2023/04/02 11:08:10;;;;;;;13.48;9.68;;;;;;;4.59;77.92;98271.78;5050732;28;20086;-73
2023/04/02 11:10:39;;;;;;;7.78;6.55;;;;;;;4.62;78.10;98266.66;5067948;28;20032;-73
2023/04/02 11:13:13;;;;;;;10.52;7.45;;;;;;;4.68;78.17;98280.28;5058995;28;20074;-73
2023/04/02 11:15:39;;;;;;;10.63;7.50;;;;;;;4.81;77.47;98273.53;5050738;28;20032;-73
2023/04/02 11:18:04;;;;;;;17.58;10.85;;;;;;;4.87;77.62;98284.19;5049497;28;20021;-73
2023/04/02 11:20:56;;;;;;;13.52;11.00;;;;;;;5.01;77.95;98281.81;5055503;28;20025;-73
2023/04/02 11:23:25;;;;;;;8.88;6.40;;;;;;;5.20;77.45;98281.34;5062921;28;20059;-73
2023/04/02 11:25:51;;;;;;;7.18;5.82;;;;;;;5.33;77.45;98278.16;5067600;28;20035;-73
2023/04/02 11:28:30;;;;;;;7.65;5.30;;;;;;;5.42;76.70;98285.81;5067962;28;20404;-73
2023/04/02 11:30:56;;;;;;;6.38;5.07;;;;;;;5.50;76.52;98288.00;5067822;28;20078;-74
2023/04/02 11:33:41;;;;;;;9.07;7.03;;;;;;;5.49;76.15;98289.91;5066533;28;20032;-74
2023/04/02 11:36:54;;;;;;;12.90;10.27;;;;;;;5.54;74.38;98280.94;5065283;28;20013;-73
2023/04/02 11:39:44;;;;;;;9.73;7.78;;;;;;;5.46;75.25;98301.31;5036932;28;20071;-73
2023/04/02 11:42:33;;;;;;;11.15;7.70;;;;;;;5.29;74.70;98289.84;5067628;28;20364;-74
2023/04/02 11:45:24;;;;;;;6.80;6.10;;;;;;;5.14;74.75;98298.72;5066989;28;20519;-74
2023/04/02 11:47:59;;;;;;;12.05;7.95;;;;;;;4.99;74.45;98307.63;5050355;28;20047;-73
2023/04/02 11:50:36;;;;;;;10.85;8.07;;;;;;;4.89;74.77;98309.19;5067000;28;20501;-74
2023/04/02 11:53:09;;;;;;;7.57;6.43;;;;;;;4.83;75.20;98314.88;5064671;28;20626;-74
2023/04/02 11:55:35;;;;;;;10.20;8.05;;;;;;;4.83;74.83;98312.97;5067387;28;20078;-73
2023/04/02 11:58:24;;;;;;;8.25;6.45;;;;;;;4.80;74.64;98315.38;5069629;28;20480;-73
2023/04/02 12:01:06;;;;;;;10.68;7.32;;;;;;;4.79;74.53;98330.06;5065337;28;20142;-74
2023/04/02 12:04:13;;;;;;;9.27;7.10;;;;;;;4.75;74.76;98324.34;5058634;28;20025;-73
2023/04/02 12:06:58;;;;;;;9.27;7.13;;;;;;;4.82;74.76;98324.94;5002753;28;20578;-73